createdAt,value
2023-05-19T00:01:02.578Z,8.83
2023-05-19T00:03:32.083Z,8.76
2023-05-19T00:05:59.023Z,8.77
2023-05-19T00:08:31.786Z,8.76
2023-05-19T00:11:02.586Z,8.71
2023-05-19T00:13:30.228Z,8.66
2023-05-19T00:15:57.145Z,8.65
2023-05-19T00:18:26.558Z,8.62
2023-05-19T00:20:53.706Z,8.60
2023-05-19T00:23:22.696Z,8.56
2023-05-19T00:25:57.691Z,8.53
2023-05-19T00:28:26.458Z,8.48
2023-05-19T00:30:53.157Z,8.45
2023-05-19T00:33:19.744Z,8.41
2023-05-19T00:35:47.414Z,8.36
2023-05-19T00:38:16.346Z,8.33
2023-05-19T00:40:43.197Z,8.29
2023-05-19T00:43:09.893Z,8.28
2023-05-19T00:45:36.637Z,8.24
2023-05-19T00:48:03.385Z,8.20
2023-05-19T00:50:31.006Z,8.16
2023-05-19T00:53:03.081Z,8.14
2023-05-19T00:55:31.816Z,8.14
2023-05-19T00:57:58.784Z,8.12
2023-05-19T01:00:28.371Z,8.07
2023-05-19T01:02:57.178Z,7.99
2023-05-19T01:05:23.938Z,7.95
2023-05-19T01:07:53.624Z,7.94
2023-05-19T01:10:22.405Z,7.93
2023-05-19T01:12:51.588Z,7.89
2023-05-19T01:15:18.465Z,7.86
2023-05-19T01:17:54.822Z,7.85
2023-05-19T01:20:31.902Z,7.82
2023-05-19T01:23:07.402Z,7.77
2023-05-19T01:25:51.607Z,7.77
2023-05-19T01:29:01.810Z,7.75
2023-05-19T01:31:29.150Z,7.69
2023-05-19T01:33:57.570Z,7.64
2023-05-19T01:36:28.164Z,7.64
2023-05-19T01:39:00.431Z,7.61
2023-05-19T01:41:28.759Z,7.59
2023-05-19T01:43:57.601Z,7.53
2023-05-19T01:46:25.133Z,7.52
2023-05-19T01:48:56.500Z,7.50
2023-05-19T01:51:23.198Z,7.47
2023-05-19T01:53:52.442Z,7.44
2023-05-19T01:56:36.189Z,7.44
2023-05-19T01:59:28.959Z,7.42
2023-05-19T02:02:00.327Z,7.40
2023-05-19T02:04:53.114Z,7.33
2023-05-19T02:07:31.002Z,7.31
2023-05-19T02:10:11.409Z,7.27
2023-05-19T02:12:41.758Z,7.25
2023-05-19T02:15:16.865Z,7.24
2023-05-19T02:17:52.181Z,7.19
2023-05-19T02:20:20.168Z,7.18
2023-05-19T02:22:47.031Z,7.16
2023-05-19T02:25:17.431Z,7.14
2023-05-19T02:27:44.203Z,7.12
2023-05-19T02:30:13.995Z,7.11
2023-05-19T02:32:42.007Z,7.06
2023-05-19T02:35:10.661Z,7.04
2023-05-19T02:37:38.792Z,6.99
2023-05-19T02:40:08.906Z,6.96
2023-05-19T02:42:43.268Z,6.93
2023-05-19T02:45:10.201Z,6.92
2023-05-19T02:47:38.608Z,6.87
2023-05-19T02:50:06.598Z,6.84
2023-05-19T02:52:33.280Z,6.84
2023-05-19T02:54:59.967Z,6.85
2023-05-19T02:57:27.078Z,6.82
2023-05-19T02:59:54.205Z,6.79
2023-05-19T03:02:22.501Z,6.74
2023-05-19T03:04:52.765Z,6.71
2023-05-19T03:07:25.527Z,6.68
2023-05-19T03:09:52.743Z,6.67
2023-05-19T03:12:20.411Z,6.65
2023-05-19T03:14:49.610Z,6.65
2023-05-19T03:17:17.351Z,6.61
2023-05-19T03:19:44.737Z,6.60
2023-05-19T03:22:11.496Z,6.58
2023-05-19T03:24:38.210Z,6.58
2023-05-19T03:27:05.884Z,6.57
2023-05-19T03:29:33.828Z,6.54
2023-05-19T03:32:00.762Z,6.52
2023-05-19T03:34:27.649Z,6.53
2023-05-19T03:36:54.295Z,6.53
2023-05-19T03:39:29.482Z,6.52
2023-05-19T03:41:56.697Z,6.51
2023-05-19T03:44:25.903Z,6.50
2023-05-19T03:46:52.756Z,6.49
2023-05-19T03:49:20.139Z,6.50
2023-05-19T03:51:47.236Z,6.51
2023-05-19T03:54:13.946Z,6.55
2023-05-19T03:56:42.085Z,6.58
2023-05-19T03:59:11.357Z,6.60
2023-05-19T04:01:38.198Z,6.63
2023-05-19T04:04:05.221Z,6.68
2023-05-19T04:06:31.904Z,6.70
2023-05-19T04:08:58.537Z,6.74
2023-05-19T04:11:25.305Z,6.73
2023-05-19T04:13:52.056Z,6.74
2023-05-19T04:16:18.791Z,6.79
2023-05-19T04:18:46.613Z,6.85
2023-05-19T04:21:15.565Z,6.91
2023-05-19T04:23:42.157Z,6.98
2023-05-19T04:26:09.775Z,7.07
2023-05-19T04:28:39.110Z,7.18
2023-05-19T04:31:13.637Z,7.63
2023-05-19T04:33:43.294Z,7.70
2023-05-19T04:36:11.707Z,7.64
2023-05-19T04:38:40.484Z,8.39
2023-05-19T04:41:10.707Z,8.96
2023-05-19T04:43:42.111Z,8.69
2023-05-19T04:46:13.704Z,9.31
2023-05-19T04:48:42.910Z,9.75
2023-05-19T04:51:12.221Z,11.38
2023-05-19T04:53:40.515Z,12.49
2023-05-19T04:56:07.770Z,13.06
2023-05-19T04:58:35.340Z,13.58
2023-05-19T05:01:01.967Z,14.02
2023-05-19T05:03:28.711Z,14.32
2023-05-19T05:05:59.462Z,14.81
2023-05-19T05:08:26.161Z,13.96
2023-05-19T05:10:54.195Z,13.79
2023-05-19T05:13:26.107Z,14.27
2023-05-19T05:15:52.960Z,14.75
2023-05-19T05:18:22.935Z,15.00
2023-05-19T05:20:51.433Z,14.76
2023-05-19T05:23:20.152Z,14.76
2023-05-19T05:25:50.521Z,14.99
2023-05-19T05:28:17.565Z,15.42
2023-05-19T05:30:45.341Z,15.75
2023-05-19T05:33:13.932Z,15.45
2023-05-19T05:35:42.058Z,14.21
2023-05-19T05:38:13.951Z,13.13
2023-05-19T05:40:41.048Z,13.09
2023-05-19T05:43:08.422Z,14.49
2023-05-19T05:45:35.140Z,15.26
2023-05-19T05:48:02.194Z,15.80
2023-05-19T05:50:29.602Z,15.93
2023-05-19T05:52:57.989Z,16.14
2023-05-19T05:55:25.130Z,16.87
2023-05-19T05:57:51.844Z,16.75
2023-05-19T06:00:20.808Z,16.40
2023-05-19T06:02:51.465Z,15.65
2023-05-19T06:05:20.892Z,15.03
2023-05-19T06:07:47.721Z,15.89
2023-05-19T06:10:14.685Z,16.74
2023-05-19T06:12:43.297Z,16.33
2023-05-19T06:15:14.132Z,16.03
2023-05-19T06:17:40.727Z,16.26
2023-05-19T06:20:11.177Z,16.80
2023-05-19T06:22:37.810Z,15.60
2023-05-19T06:25:06.092Z,15.07
2023-05-19T06:27:34.928Z,15.68
2023-05-19T06:30:06.543Z,15.88
2023-05-19T06:32:33.219Z,16.53
2023-05-19T06:35:00.256Z,17.15
2023-05-19T06:37:27.559Z,17.10
2023-05-19T06:39:54.088Z,16.93
2023-05-19T06:42:25.363Z,16.57
2023-05-19T06:44:53.287Z,16.92
2023-05-19T06:47:20.057Z,16.52
2023-05-19T06:49:55.507Z,16.35
2023-05-19T06:52:23.072Z,16.56
2023-05-19T06:54:50.733Z,16.49
2023-05-19T06:57:17.337Z,16.28
2023-05-19T06:59:45.691Z,16.11
2023-05-19T07:02:13.071Z,16.56
2023-05-19T07:04:40.104Z,16.22
2023-05-19T07:07:07.388Z,15.37
2023-05-19T07:09:34.100Z,14.79
2023-05-19T07:12:01.635Z,14.39
2023-05-19T07:14:28.235Z,14.21
2023-05-19T07:16:56.971Z,14.28
2023-05-19T07:19:24.242Z,13.91
2023-05-19T07:21:53.513Z,13.88
2023-05-19T07:24:28.092Z,14.07
2023-05-19T07:26:54.867Z,13.99
2023-05-19T07:29:21.751Z,14.01
2023-05-19T07:31:50.749Z,14.08
2023-05-19T07:34:17.633Z,14.21
2023-05-19T07:36:46.525Z,14.29
2023-05-19T07:39:13.229Z,14.27
2023-05-19T07:41:43.868Z,14.56
2023-05-19T07:44:10.985Z,14.85
2023-05-19T07:46:38.670Z,14.90
2023-05-19T07:49:05.364Z,14.57
2023-05-19T07:51:32.199Z,14.53
2023-05-19T07:53:58.760Z,14.87
2023-05-19T07:56:25.339Z,14.84
2023-05-19T07:58:51.923Z,14.95
2023-05-19T08:01:18.794Z,15.06
2023-05-19T08:03:46.526Z,15.02
2023-05-19T08:06:14.796Z,14.94
2023-05-19T08:08:42.827Z,15.24
2023-05-19T08:11:10.868Z,15.37
2023-05-19T08:13:38.257Z,15.47
2023-05-19T08:16:05.408Z,15.39
2023-05-19T08:18:33.195Z,15.56
2023-05-19T08:21:01.483Z,15.91
2023-05-19T08:23:30.743Z,15.74
2023-05-19T08:25:57.612Z,15.86
2023-05-19T08:28:25.159Z,16.06
2023-05-19T08:30:55.153Z,16.33
2023-05-19T08:33:23.191Z,16.05
2023-05-19T08:35:51.313Z,16.09
2023-05-19T08:38:18.022Z,16.16
2023-05-19T08:40:50.813Z,16.25
2023-05-19T08:43:17.542Z,16.27
2023-05-19T08:45:49.731Z,16.44
2023-05-19T08:48:20.726Z,16.67
2023-05-19T08:50:57.466Z,16.88
2023-05-19T08:53:34.106Z,16.76
2023-05-19T08:56:15.497Z,16.99
2023-05-19T08:58:53.060Z,17.30
2023-05-19T09:01:23.472Z,16.99
2023-05-19T09:04:17.436Z,16.67
2023-05-19T09:06:46.236Z,16.27
2023-05-19T09:09:15.984Z,16.15
2023-05-19T09:11:47.517Z,16.12
2023-05-19T09:14:16.249Z,16.05
2023-05-19T09:16:51.870Z,16.13
2023-05-19T09:19:22.316Z,16.37
2023-05-19T09:22:12.381Z,16.50
2023-05-19T09:24:40.530Z,16.61
2023-05-19T09:27:07.777Z,16.74
2023-05-19T09:29:34.442Z,16.89
2023-05-19T09:32:06.576Z,16.85
2023-05-19T09:34:35.789Z,16.66
2023-05-19T09:37:03.123Z,16.80
2023-05-19T09:39:30.839Z,16.90
2023-05-19T09:42:00.278Z,17.01
2023-05-19T09:44:29.626Z,17.32
2023-05-19T09:46:58.891Z,17.49
2023-05-19T09:49:33.719Z,17.44
2023-05-19T09:52:04.238Z,17.27
2023-05-19T09:54:33.009Z,17.04
2023-05-19T09:57:05.217Z,16.83
2023-05-19T09:59:34.078Z,16.50
2023-05-19T10:02:03.237Z,16.55
2023-05-19T10:04:30.806Z,16.72
2023-05-19T10:07:06.584Z,16.83
2023-05-19T10:09:36.137Z,16.96
2023-05-19T10:12:07.141Z,16.88
2023-05-19T10:14:33.752Z,16.85
2023-05-19T10:17:00.752Z,17.04
2023-05-19T10:19:29.109Z,16.96
2023-05-19T10:21:56.519Z,17.12
2023-05-19T10:24:23.495Z,17.14
2023-05-19T10:26:57.528Z,17.29
2023-05-19T10:29:33.322Z,17.55
2023-05-19T10:32:08.603Z,17.62
2023-05-19T10:34:54.023Z,17.73
2023-05-19T10:37:38.852Z,17.74
2023-05-19T10:40:37.811Z,17.72
2023-05-19T10:43:32.901Z,17.66
2023-05-19T10:46:00.801Z,17.64
2023-05-19T10:48:41.372Z,17.70
2023-05-19T10:51:12.428Z,17.70
2023-05-19T10:53:51.962Z,17.79
2023-05-19T10:56:37.207Z,17.97
2023-05-19T10:59:03.863Z,18.12
2023-05-19T11:01:35.770Z,17.97
2023-05-19T11:04:10.683Z,17.93
2023-05-19T11:06:38.147Z,17.77
2023-05-19T11:09:16.655Z,18.02
2023-05-19T11:11:48.480Z,18.03
2023-05-19T11:14:23.611Z,17.93
2023-05-19T11:16:52.831Z,18.20
2023-05-19T11:19:30.018Z,18.48
2023-05-19T11:21:58.083Z,18.39
2023-05-19T11:24:40.967Z,18.32
2023-05-19T11:27:24.106Z,18.26
2023-05-19T11:29:54.160Z,18.35
2023-05-19T11:32:24.863Z,18.31
2023-05-19T11:34:52.048Z,18.31
2023-05-19T11:37:21.282Z,18.68
2023-05-19T11:39:48.345Z,18.57
2023-05-19T11:42:14.913Z,18.66
2023-05-19T11:44:41.583Z,18.57
2023-05-19T11:47:08.932Z,18.43
2023-05-19T11:49:37.182Z,18.49
2023-05-19T11:52:07.550Z,18.78
2023-05-19T11:54:37.191Z,18.92
2023-05-19T11:57:04.191Z,18.76
2023-05-19T11:59:36.280Z,18.89
2023-05-19T12:02:17.009Z,18.95
2023-05-19T12:04:43.716Z,18.64
2023-05-19T12:07:17.795Z,18.69
2023-05-19T12:09:47.955Z,18.95
2023-05-19T12:12:23.247Z,19.31
2023-05-19T12:14:53.619Z,19.29
2023-05-19T12:17:26.918Z,19.32
2023-05-19T12:19:54.291Z,19.39
2023-05-19T12:22:21.393Z,19.14
2023-05-19T12:24:51.081Z,19.28
2023-05-19T12:27:20.445Z,19.62
2023-05-19T12:29:52.837Z,19.20
2023-05-19T12:32:26.206Z,18.86
2023-05-19T12:34:56.324Z,18.73
2023-05-19T12:37:27.631Z,18.78
2023-05-19T12:39:56.771Z,18.83
2023-05-19T12:42:37.436Z,18.75
2023-05-19T12:45:07.429Z,18.86
2023-05-19T12:47:35.320Z,19.06
2023-05-19T12:50:05.376Z,19.14
2023-05-19T12:52:35.451Z,19.41
2023-05-19T12:55:06.012Z,19.26
2023-05-19T12:57:37.261Z,19.40
2023-05-19T13:00:10.819Z,19.37
2023-05-19T13:03:01.751Z,19.30
2023-05-19T13:05:32.803Z,19.26
2023-05-19T13:08:10.554Z,19.22
2023-05-19T13:10:39.090Z,19.41
2023-05-19T13:13:08.049Z,19.40
2023-05-19T13:15:38.057Z,19.28
2023-05-19T13:18:10.083Z,19.31
2023-05-19T13:20:38.678Z,19.27
2023-05-19T13:23:05.982Z,19.40
2023-05-19T13:25:35.840Z,19.42
2023-05-19T13:28:07.707Z,19.34
2023-05-19T13:30:39.608Z,19.20
2023-05-19T13:33:08.371Z,19.08
2023-05-19T13:35:37.985Z,19.13
2023-05-19T13:38:11.052Z,19.20
2023-05-19T13:40:38.317Z,19.28
2023-05-19T13:43:05.270Z,19.40
2023-05-19T13:45:32.292Z,19.24
2023-05-19T13:47:58.948Z,19.42
2023-05-19T13:50:25.948Z,19.49
2023-05-19T13:52:52.900Z,19.76
2023-05-19T13:55:19.730Z,19.59
2023-05-19T13:57:46.379Z,19.66
2023-05-19T14:00:17.331Z,19.64
2023-05-19T14:02:44.684Z,19.67
2023-05-19T14:05:11.553Z,19.49
2023-05-19T14:07:38.760Z,19.46
2023-05-19T14:10:08.988Z,19.28
2023-05-19T14:12:55.033Z,19.03
2023-05-19T14:15:25.286Z,19.14
2023-05-19T14:17:53.528Z,19.12
2023-05-19T14:20:22.354Z,19.33
2023-05-19T14:22:55.860Z,19.25
2023-05-19T14:25:22.843Z,19.25
2023-05-19T14:27:49.712Z,19.40
2023-05-19T14:30:16.560Z,19.42
2023-05-19T14:32:43.130Z,19.40
2023-05-19T14:35:10.047Z,19.41
2023-05-19T14:37:41.992Z,19.10
2023-05-19T14:40:09.542Z,18.94
2023-05-19T14:42:36.411Z,19.19
2023-05-19T14:45:03.793Z,19.30
2023-05-19T14:47:30.586Z,19.38
2023-05-19T14:49:58.336Z,19.31
2023-05-19T14:52:27.036Z,19.45
2023-05-19T14:54:53.597Z,19.50
2023-05-19T14:57:24.566Z,19.54
2023-05-19T14:59:51.435Z,19.59
2023-05-19T15:02:20.737Z,19.79
2023-05-19T15:04:51.428Z,19.87
2023-05-19T15:07:18.652Z,19.73
2023-05-19T15:09:46.675Z,19.71
2023-05-19T15:12:15.939Z,19.48
2023-05-19T15:14:44.356Z,19.70
2023-05-19T15:17:11.639Z,19.65
2023-05-19T15:19:43.029Z,19.61
2023-05-19T15:22:09.762Z,19.47
2023-05-19T15:24:37.223Z,19.72
2023-05-19T15:27:04.155Z,19.71
2023-05-19T15:29:30.800Z,19.65
2023-05-19T15:31:58.448Z,19.53
2023-05-19T15:34:26.612Z,19.68
2023-05-19T15:36:53.626Z,19.56
2023-05-19T15:39:25.462Z,19.54
2023-05-19T15:41:54.927Z,19.77
2023-05-19T15:44:23.583Z,20.03
2023-05-19T15:46:53.139Z,19.68
2023-05-19T15:49:23.132Z,19.73
2023-05-19T15:51:51.743Z,19.90
2023-05-19T15:54:20.248Z,19.96
2023-05-19T15:56:47.042Z,19.82
2023-05-19T15:59:18.628Z,19.80
2023-05-19T16:01:56.008Z,19.77
2023-05-19T16:04:26.233Z,19.75
2023-05-19T16:06:58.011Z,19.63
2023-05-19T16:09:25.664Z,19.48
2023-05-19T16:11:52.459Z,19.26
2023-05-19T16:14:22.679Z,19.28
2023-05-19T16:16:51.415Z,19.42
2023-05-19T16:19:23.654Z,19.45
2023-05-19T16:21:51.471Z,19.54
2023-05-19T16:24:20.219Z,19.61
2023-05-19T16:26:50.868Z,19.50
2023-05-19T16:29:21.112Z,19.33
2023-05-19T16:31:51.526Z,19.41
2023-05-19T16:34:24.077Z,19.31
2023-05-19T16:36:52.050Z,19.28
2023-05-19T16:39:22.906Z,19.34
2023-05-19T16:41:53.478Z,19.23
2023-05-19T16:44:20.160Z,19.18
2023-05-19T16:46:55.390Z,19.10
2023-05-19T16:49:23.597Z,18.99
2023-05-19T16:51:54.946Z,18.91
2023-05-19T16:54:23.496Z,18.90
2023-05-19T16:56:51.352Z,18.94
2023-05-19T16:59:20.696Z,19.06
2023-05-19T17:01:48.540Z,19.09
2023-05-19T17:04:15.705Z,19.09
2023-05-19T17:06:42.994Z,19.05
2023-05-19T17:09:09.558Z,19.00
2023-05-19T17:11:36.664Z,18.91
2023-05-19T17:14:07.907Z,18.73
2023-05-19T17:16:35.802Z,18.65
2023-05-19T17:19:03.835Z,18.58
2023-05-19T17:21:31.940Z,18.55
2023-05-19T17:23:59.111Z,18.56
2023-05-19T17:26:29.020Z,18.65
2023-05-19T17:28:58.542Z,18.73
2023-05-19T17:31:25.486Z,18.81
2023-05-19T17:33:53.515Z,18.79
2023-05-19T17:36:21.103Z,18.74
2023-05-19T17:38:51.298Z,18.66
2023-05-19T17:41:20.500Z,18.65
2023-05-19T17:43:47.122Z,18.60
2023-05-19T17:46:16.021Z,18.50
2023-05-19T17:48:44.007Z,18.46
2023-05-19T17:51:11.905Z,18.44
2023-05-19T17:53:39.920Z,18.44
2023-05-19T17:56:11.590Z,18.42
2023-05-19T17:58:38.766Z,18.40
2023-05-19T18:01:07.534Z,18.34
2023-05-19T18:03:35.577Z,18.31
2023-05-19T18:06:03.383Z,18.27
2023-05-19T18:08:31.546Z,18.22
2023-05-19T18:11:00.848Z,18.13
2023-05-19T18:13:31.641Z,18.05
2023-05-19T18:16:00.643Z,17.95
2023-05-19T18:18:27.350Z,17.88
2023-05-19T18:20:55.023Z,17.81
2023-05-19T18:23:22.517Z,17.75
2023-05-19T18:25:55.538Z,17.70
2023-05-19T18:28:23.856Z,17.63
2023-05-19T18:31:03.808Z,17.56
2023-05-19T18:33:31.878Z,17.49
2023-05-19T18:35:58.961Z,17.41
2023-05-19T18:38:25.959Z,17.35
2023-05-19T18:40:52.884Z,17.30
2023-05-19T18:43:21.527Z,17.23
2023-05-19T18:45:49.400Z,17.17
2023-05-19T18:48:20.982Z,17.11
2023-05-19T18:50:48.027Z,17.06
2023-05-19T18:53:15.172Z,17.02
2023-05-19T18:55:42.330Z,16.95
2023-05-19T18:58:09.071Z,16.92
2023-05-19T19:00:36.423Z,16.87
2023-05-19T19:03:06.115Z,16.82
2023-05-19T19:05:34.655Z,16.78
2023-05-19T19:08:01.442Z,16.72
2023-05-19T19:10:30.641Z,16.70
2023-05-19T19:12:57.955Z,16.66
2023-05-19T19:15:25.778Z,16.62
2023-05-19T19:18:04.573Z,16.57
2023-05-19T19:20:37.786Z,16.54
2023-05-19T19:23:12.604Z,16.46
2023-05-19T19:25:39.681Z,16.41
2023-05-19T19:28:07.008Z,16.39
2023-05-19T19:30:58.854Z,16.33
2023-05-19T19:33:27.167Z,16.29
2023-05-19T19:35:55.930Z,16.24
2023-05-19T19:38:23.175Z,16.19
2023-05-19T19:40:53.208Z,16.15
2023-05-19T19:43:23.207Z,16.07
2023-05-19T19:46:04.396Z,16.02
2023-05-19T19:48:32.170Z,15.95
2023-05-19T19:50:58.904Z,15.87
2023-05-19T19:53:28.525Z,15.85
2023-05-19T19:56:03.928Z,15.80
2023-05-19T19:58:34.603Z,15.77
2023-05-19T20:01:05.719Z,15.73
2023-05-19T20:03:33.672Z,15.69
2023-05-19T20:06:01.476Z,15.62
2023-05-19T20:08:30.499Z,15.54
2023-05-19T20:10:57.729Z,15.49
2023-05-19T20:13:25.270Z,15.46
2023-05-19T20:15:52.564Z,15.44
2023-05-19T20:18:22.918Z,15.35
2023-05-19T20:20:51.841Z,15.30
2023-05-19T20:23:18.597Z,15.24
2023-05-19T20:26:02.300Z,15.19
2023-05-19T20:28:39.528Z,15.15
2023-05-19T20:31:08.060Z,15.08
2023-05-19T20:33:35.400Z,15.04
2023-05-19T20:36:02.327Z,15.01
2023-05-19T20:38:31.512Z,14.96
2023-05-19T20:40:59.204Z,14.91
2023-05-19T20:43:26.964Z,14.85
2023-05-19T20:45:57.101Z,14.79
2023-05-19T20:48:24.519Z,14.76
2023-05-19T20:50:55.724Z,14.71
2023-05-19T20:53:23.305Z,14.65
2023-05-19T20:55:51.783Z,14.60
2023-05-19T20:58:18.864Z,14.57
2023-05-19T21:00:47.463Z,14.55
2023-05-19T21:03:15.890Z,14.51
2023-05-19T21:05:46.469Z,14.46
2023-05-19T21:08:13.425Z,14.40
2023-05-19T21:10:41.015Z,14.36
2023-05-19T21:13:11.449Z,14.34
2023-05-19T21:15:38.269Z,14.29
2023-05-19T21:18:05.943Z,14.25
2023-05-19T21:20:37.296Z,14.26
2023-05-19T21:23:05.695Z,14.23
2023-05-19T21:25:37.298Z,14.21
2023-05-19T21:28:04.555Z,14.14
2023-05-19T21:30:32.317Z,14.10
2023-05-19T21:32:59.876Z,14.09
2023-05-19T21:35:26.948Z,14.05
2023-05-19T21:37:53.614Z,13.98
2023-05-19T21:40:24.951Z,13.94
2023-05-19T21:42:52.112Z,13.89
2023-05-19T21:45:19.370Z,13.90
2023-05-19T21:47:46.409Z,13.87
2023-05-19T21:50:17.381Z,13.83
2023-05-19T21:52:46.032Z,13.79
2023-05-19T21:55:12.866Z,13.77
2023-05-19T21:57:39.755Z,13.76
2023-05-19T22:00:08.860Z,13.73
2023-05-19T22:02:41.561Z,13.71
2023-05-19T22:05:14.924Z,13.73
2023-05-19T22:07:46.818Z,13.71
2023-05-19T22:10:14.983Z,13.65
2023-05-19T22:12:41.598Z,13.62
2023-05-19T22:15:09.188Z,13.57
2023-05-19T22:17:37.139Z,13.51
2023-05-19T22:20:05.532Z,13.49
2023-05-19T22:22:33.116Z,13.43
2023-05-19T22:25:00.151Z,13.39
2023-05-19T22:27:27.902Z,13.34
2023-05-19T22:29:58.332Z,13.31
2023-05-19T22:32:25.348Z,13.26
2023-05-19T22:34:53.226Z,13.22
2023-05-19T22:37:22.901Z,13.22
2023-05-19T22:39:54.107Z,13.15
2023-05-19T22:42:24.308Z,13.11
2023-05-19T22:44:54.389Z,13.07
2023-05-19T22:47:21.001Z,13.06
2023-05-19T22:50:20.670Z,13.02
2023-05-19T22:53:11.800Z,12.94
2023-05-19T22:55:39.501Z,12.89
2023-05-19T22:58:09.224Z,12.82
2023-05-19T23:00:35.913Z,12.78
2023-05-19T23:03:02.704Z,12.74
2023-05-19T23:05:33.029Z,12.66
2023-05-19T23:08:00.695Z,12.62
2023-05-19T23:10:30.294Z,12.56
2023-05-19T23:12:58.040Z,12.54
2023-05-19T23:15:25.770Z,12.48
2023-05-19T23:17:52.731Z,12.43
2023-05-19T23:20:20.000Z,12.40
2023-05-19T23:22:47.091Z,12.37
2023-05-19T23:25:15.075Z,12.35
2023-05-19T23:27:41.651Z,12.27
2023-05-19T23:30:08.860Z,12.21
2023-05-19T23:32:35.492Z,12.18
2023-05-19T23:35:19.738Z,12.12
2023-05-19T23:41:19.865Z,12.03
2023-05-19T23:43:46.900Z,11.99
2023-05-19T23:46:17.092Z,11.97
2023-05-19T23:48:44.046Z,11.93
2023-05-19T23:51:13.912Z,11.89
2023-05-19T23:53:40.522Z,11.87
2023-05-19T23:56:07.430Z,11.82
2023-05-19T23:58:33.994Z,11.79
